LGIR/HER METAR and TAF weather

Enter ICAO airport designator
Station Type Date Time Source
LGIR METAR 2018/12/10 02:20 UTC NOAA

LGIR 100220Z 16011KT 9999 FEW020 12/08 Q1012 NOSIG


Station Type Date Time Source
LGIR Decoded METAR 2018/12/10 02:20 UTC NOAA

Heraklion Airport , Greece (LGIR) 35-20N 025-11E 39M
Dec 09, 2018 - 09:20 PM EST / 2018.12.10 0220 UTC
Wind: from the SSE (160 degrees) at 13 MPH (11 KT):0
Visibility: greater than 7 mile(s):0
Sky conditions: mostly clear
Temperature: 53 F (12 C)
Dew Point: 46 F (8 C)
Relative Humidity: 76%
Pressure (altimeter): 29.88 in. Hg (1012 hPa)
ob: LGIR 100220Z 16011KT 9999 FEW020 12/08 Q1012 NOSIG
cycle: 2

Station Type Date Time Source
LGIR TAF 2018/12/09 18:12 UTC NOAA

TAF LGIR 091700Z 0918/1018 20012KT 9999 FEW020 SCT025 PROB40
TEMPO 1012/1015 5000 RA FEW010 BKN020 BKN070 PROB30
TEMPO 1012/1015 4000 TSRA SCT010 FEW018CB BKN020 OVC070
TEMPO 1006/1012 19015G25KT
BECMG 1016/1018 27015KT


Example: see airport list